Terminal Aerodrome Forecast
Issued by NWS

Home | Current Version | Previous Version | Text Only | Print | Product List | Glossary Off
Versions: 1 2 3 4 5 6 7 8 9 10 11 12 13 14 15 16 17 18 19 20 21 22 23 24 25 26

000
FTUS43 KTOP 151400 AAA
TAFFOE
TAF AMD
KFOE 151413Z 1514/1612 23010KT P6SM SCT015 BKN080
     FM151500 35011KT P6SM VCSH BKN015
     FM151900 01013G20KT P6SM SCT030
     FM160100 03003KT P6SM SKC=

USA.gov is the U.S. government's official web portal to all federal, state and local government web resources and services.